Heppner, South Dakota
Current Conditions -  °F | °C
As of 7:53 PM on Friday 31 Oct 2014 (Local Time) from KCUT Reporting Station
Clear Clear  
Wind Chill: 32°   Ceiling: Unl
Heat Index: 36°   Visibility: 10mi
Dew Point: 27°   Wind: 5mph
Humidity: 70%   Direction: 230°SW
Pressure: 30.04"   Gusts: NA
Location:  43.346°N, 103.483°W
Report Text: KCUT 010153Z AUTO 23004KT 10SM CLR 02/M03 A3004 RMK AO2 SLP189 T00221028
Loading
Personal Weather Stations






























Interactive Weather Map
Tropical Storm Tracking
New forecast layout! Learn more

10-Day Weather Forecast

Advertisements
Track Severe Weather on mobile